Time;durP1;ratioP1;P1;durP2;ratioP2;P2;SDS_P1;SDS_P2;PMS_P1;PMS_P2;Temp;Humidity;BMP_temperature;BMP_pressure;BME280_temperature;BME280_humidity;BME280_pressure;Samples;Min_cycle;Max_cycle;Signal;HPM_P1;HPM_P2
2023/02/18 00:03:37;;;;;;;1.60;1.23;;;15.30;39.70;;;;;;10398742;28;20744;-69
2023/02/18 00:08:41;;;;;;;1.53;1.37;;;15.30;39.50;;;;;;10386262;28;20780;-71
2023/02/18 00:13:50;;;;;;;1.33;1.23;;;15.30;39.60;;;;;;10398463;28;20226;-69
2023/02/18 00:18:55;;;;;;;1.77;1.40;;;15.20;39.90;;;;;;10388099;28;20249;-69
2023/02/18 00:23:58;;;;;;;0.90;0.90;;;15.30;39.80;;;;;;10397499;28;20236;-69
2023/02/18 00:29:03;;;;;;;1.20;1.10;;;15.20;39.50;;;;;;10393830;28;20238;-70
2023/02/18 00:34:07;;;;;;;2.00;1.10;;;15.20;39.60;;;;;;10391890;28;20932;-69
2023/02/18 00:39:11;;;;;;;1.00;1.00;;;15.30;39.50;;;;;;10395712;28;20229;-69
2023/02/18 00:44:16;;;;;;;1.30;1.20;;;15.20;39.50;;;;;;10388313;28;20703;-69
2023/02/18 00:49:19;;;;;;;1.20;1.10;;;15.20;39.50;;;;;;10384000;28;20238;-69
2023/02/18 00:54:22;;;;;;;0.90;0.90;;;15.20;39.50;;;;;;10406219;28;20249;-69
2023/02/18 00:59:26;;;;;;;0.90;0.90;;;15.20;39.50;;;;;;10385683;28;20229;-71
2023/02/18 01:04:29;;;;;;;1.93;1.07;;;15.20;39.70;;;;;;10390225;28;20634;-73
2023/02/18 01:09:33;;;;;;;1.30;1.30;;;15.20;39.50;;;;;;10393062;28;20236;-68
2023/02/18 01:14:37;;;;;;;1.20;1.10;;;15.20;39.60;;;;;;10389423;28;20221;-68
2023/02/18 01:19:40;;;;;;;1.20;1.10;;;15.20;39.70;;;;;;10385360;28;20230;-68
2023/02/18 01:24:44;;;;;;;1.00;1.00;;;15.10;39.60;;;;;;10394855;28;20230;-68
2023/02/18 01:29:49;;;;;;;1.10;1.10;;;15.10;39.60;;;;;;10387687;28;20632;-68
2023/02/18 01:34:53;;;;;;;1.10;1.03;;;15.20;39.70;;;;;;10388671;28;20718;-68
2023/02/18 01:39:56;;;;;;;1.17;1.07;;;15.20;39.70;;;;;;10393136;28;20226;-68
2023/02/18 01:45:33;;;;;;;1.20;1.20;;;15.20;39.60;;;;;;10388512;28;20238;-68
2023/02/18 01:50:41;;;;;;;1.10;1.10;;;15.20;39.90;;;;;;10395650;28;20690;-68
2023/02/18 01:55:44;;;;;;;1.13;1.10;;;15.10;39.50;;;;;;10388081;28;20229;-68
2023/02/18 02:00:48;;;;;;;1.20;1.10;;;15.10;39.40;;;;;;10385178;28;20236;-69
2023/02/18 02:05:52;;;;;;;1.57;1.00;;;15.20;39.50;;;;;;10391473;28;20230;-68
2023/02/18 02:11:11;;;;;;;0.80;0.80;;;15.20;39.30;;;;;;10384391;28;20279;-68
2023/02/18 02:16:27;;;;;;;0.90;0.90;;;15.20;39.30;;;;;;10390289;28;20325;-68
2023/02/18 02:22:07;;;;;;;0.73;0.73;;;15.20;39.10;;;;;;10393200;28;20232;-68
2023/02/18 02:27:15;;;;;;;0.90;0.90;;;15.20;39.00;;;;;;10384791;28;20690;-68
2023/02/18 02:32:45;;;;;;;0.80;0.80;;;15.20;39.20;;;;;;10390854;28;20226;-68
2023/02/18 02:37:57;;;;;;;0.90;0.90;;;15.20;39.00;;;;;;10385622;28;20225;-68
2023/02/18 02:43:11;;;;;;;0.77;0.77;;;15.20;39.00;;;;;;10387428;28;20241;-68
2023/02/18 02:48:23;;;;;;;1.50;0.80;;;15.20;39.00;;;;;;10389902;28;20595;-68
2023/02/18 02:53:30;;;;;;;0.90;0.90;;;15.20;39.00;;;;;;10390898;28;20228;-67
2023/02/18 02:58:33;;;;;;;1.07;1.00;;;15.30;39.00;;;;;;10387097;28;20726;-68
2023/02/18 03:03:56;;;;;;;0.90;0.90;;;15.30;39.00;;;;;;10387310;28;20730;-68
2023/02/18 03:09:10;;;;;;;0.77;0.77;;;15.30;39.00;;;;;;10382773;28;20245;-67
2023/02/18 03:14:22;;;;;;;1.27;0.93;;;15.30;39.00;;;;;;10382271;28;20492;-68
2023/02/18 03:19:29;;;;;;;0.80;0.80;;;15.30;39.10;;;;;;10384450;28;20226;-68
2023/02/18 03:24:37;;;;;;;2.20;1.00;;;15.30;39.10;;;;;;10379360;28;20736;-68
2023/02/18 03:29:41;;;;;;;1.10;1.10;;;15.30;39.10;;;;;;10381361;28;20229;-68
2023/02/18 03:34:51;;;;;;;1.00;1.00;;;15.30;39.00;;;;;;10388903;28;20229;-68
2023/02/18 03:39:58;;;;;;;1.00;1.00;;;15.30;39.20;;;;;;10394126;28;20226;-68
2023/02/18 03:45:02;;;;;;;0.97;0.97;;;15.30;39.20;;;;;;10395596;28;20233;-70
2023/02/18 03:50:06;;;;;;;0.90;0.90;;;15.30;39.30;;;;;;10393869;28;20233;-68
2023/02/18 03:55:11;;;;;;;1.00;1.00;;;15.30;39.30;;;;;;10390063;28;20240;-68
2023/02/18 04:00:15;;;;;;;0.90;0.90;;;15.20;39.30;;;;;;10387086;28;20261;-68
2023/02/18 04:05:18;;;;;;;1.00;1.00;;;15.30;39.30;;;;;;10392036;28;20234;-68
2023/02/18 04:10:23;;;;;;;0.90;0.90;;;15.20;39.20;;;;;;10389712;28;20241;-68
2023/02/18 04:15:26;;;;;;;1.00;1.00;;;15.20;39.20;;;;;;10388314;28;20237;-68
2023/02/18 04:20:29;;;;;;;1.20;1.07;;;15.20;39.30;;;;;;10392208;28;20230;-68
2023/02/18 04:25:34;;;;;;;1.03;1.00;;;15.20;39.20;;;;;;10383836;28;20654;-68
2023/02/18 04:30:37;;;;;;;1.00;1.00;;;15.20;39.20;;;;;;10401438;28;20570;-67
2023/02/18 04:35:40;;;;;;;1.13;1.10;;;15.20;39.10;;;;;;10386864;28;20578;-68
2023/02/18 04:40:45;;;;;;;1.00;1.00;;;15.20;39.10;;;;;;10394088;28;20229;-68
2023/02/18 04:45:48;;;;;;;0.90;0.90;;;15.20;38.90;;;;;;10390635;28;20234;-69
2023/02/18 04:50:51;;;;;;;1.10;1.00;;;15.20;38.80;;;;;;10389346;28;20225;-68
2023/02/18 04:55:56;;;;;;;1.43;1.00;;;15.20;38.80;;;;;;10390082;28;20230;-68
2023/02/18 05:01:00;;;;;;;1.13;1.03;;;15.20;38.60;;;;;;10384447;28;20237;-68
2023/02/18 05:06:04;;;;;;;1.23;1.17;;;15.30;38.80;;;;;;10390835;28;20234;-68
2023/02/18 05:11:09;;;;;;;1.40;1.30;;;15.30;38.60;;;;;;10392157;28;20730;-69
2023/02/18 05:16:12;;;;;;;1.40;1.30;;;15.30;38.60;;;;;;10391200;28;20234;-68
2023/02/18 05:21:15;;;;;;;1.40;1.30;;;15.30;38.60;;;;;;10394997;28;20230;-68
2023/02/18 05:26:20;;;;;;;1.20;1.10;;;15.30;38.60;;;;;;10395369;28;20241;-68
2023/02/18 05:31:23;;;;;;;1.20;1.10;;;15.30;38.80;;;;;;10390957;28;20682;-68
2023/02/18 05:36:26;;;;;;;1.10;1.10;;;15.20;38.60;;;;;;10389633;28;20241;-68
2023/02/18 05:41:31;;;;;;;1.10;1.10;;;15.20;38.90;;;;;;10390055;28;20230;-68
2023/02/18 05:46:34;;;;;;;1.00;1.00;;;15.20;38.90;;;;;;10397759;28;20377;-67
2023/02/18 05:51:37;;;;;;;1.10;1.10;;;15.20;38.90;;;;;;10386298;28;20228;-67
2023/02/18 05:56:42;;;;;;;2.07;1.87;;;15.10;38.90;;;;;;10395642;28;20602;-68
2023/02/18 06:01:46;;;;;;;1.40;1.30;;;15.10;38.90;;;;;;10385820;28;20797;-68
2023/02/18 06:06:49;;;;;;;1.53;1.17;;;15.10;38.90;;;;;;10390240;28;20626;-68
2023/02/18 06:11:54;;;;;;;1.30;1.20;;;15.10;38.90;;;;;;10391286;28;20223;-68
2023/02/18 06:16:57;;;;;;;1.37;1.27;;;15.10;39.10;;;;;;10384359;28;20240;-68
2023/02/18 06:22:00;;;;;;;1.07;1.07;;;15.10;39.10;;;;;;10385251;28;20241;-68
2023/02/18 06:27:05;;;;;;;1.00;1.00;;;15.00;39.10;;;;;;10387715;28;20225;-68
2023/02/18 06:32:08;;;;;;;1.00;1.00;;;15.00;39.10;;;;;;10390528;28;20661;-68
2023/02/18 06:37:11;;;;;;;1.10;1.00;;;15.00;39.10;;;;;;10393815;28;20238;-68
2023/02/18 06:42:16;;;;;;;1.10;1.10;;;14.90;39.10;;;;;;10390020;28;20292;-70
2023/02/18 06:47:19;;;;;;;1.90;1.80;;;14.90;39.10;;;;;;10384576;28;20922;-68
2023/02/18 06:52:22;;;;;;;2.07;1.97;;;14.90;39.00;;;;;;10391020;28;20237;-67
2023/02/18 06:57:27;;;;;;;1.33;1.27;;;14.90;38.90;;;;;;10389525;28;20255;-67
2023/02/18 07:02:30;;;;;;;1.60;1.50;;;15.00;38.90;;;;;;10382073;28;20253;-68
2023/02/18 07:07:33;;;;;;;1.60;1.50;;;14.90;39.00;;;;;;10395053;28;20229;-68
2023/02/18 07:12:37;;;;;;;1.70;1.60;;;14.90;38.90;;;;;;10403421;28;20257;-68
2023/02/18 07:17:41;;;;;;;1.53;1.43;;;14.90;39.00;;;;;;10391502;28;20580;-68
2023/02/18 07:22:44;;;;;;;1.50;1.40;;;14.90;39.10;;;;;;10400938;28;20576;-70
2023/02/18 07:27:48;;;;;;;1.77;1.67;;;15.00;39.00;;;;;;10395461;28;20253;-68
2023/02/18 07:32:51;;;;;;;1.20;1.10;;;15.00;39.00;;;;;;10395441;28;20228;-67
2023/02/18 07:37:56;;;;;;;0.90;0.90;;;15.00;38.90;;;;;;10397441;28;20726;-72
2023/02/18 07:43:01;;;;;;;0.83;0.83;;;15.00;38.90;;;;;;10399668;28;20226;-73
2023/02/18 07:48:04;;;;;;;0.90;0.90;;;15.10;39.00;;;;;;10392068;28;20230;-70
2023/02/18 07:53:08;;;;;;;1.00;0.90;;;15.10;39.20;;;;;;10396277;28;20237;-71
2023/02/18 07:58:12;;;;;;;1.47;1.37;;;15.10;39.30;;;;;;10395262;28;20244;-68
2023/02/18 08:03:16;;;;;;;0.90;0.90;;;15.00;39.30;;;;;;10404406;28;20234;-71
2023/02/18 08:08:23;;;;;;;1.60;1.50;;;15.10;39.30;;;;;;10393915;28;20719;-68
2023/02/18 08:13:27;;;;;;;1.60;1.50;;;15.00;39.50;;;;;;10389744;28;20606;-68
2023/02/18 08:18:30;;;;;;;1.80;1.70;;;15.00;39.60;;;;;;10396619;28;20233;-70
2023/02/18 08:23:33;;;;;;;1.40;1.30;;;15.00;39.60;;;;;;10395388;28;20234;-70
2023/02/18 08:28:38;;;;;;;1.50;1.40;;;15.00;39.70;;;;;;10386557;28;20237;-71
2023/02/18 08:33:41;;;;;;;1.20;1.20;;;15.00;39.70;;;;;;10395566;28;20249;-73
2023/02/18 08:38:44;;;;;;;1.60;1.50;;;15.00;39.70;;;;;;10407422;28;20229;-73
2023/02/18 08:43:49;;;;;;;1.50;1.40;;;15.10;39.70;;;;;;10387896;28;20221;-69
2023/02/18 08:48:52;;;;;;;1.10;1.10;;;15.10;39.60;;;;;;10400890;28;20701;-68
2023/02/18 08:53:56;;;;;;;1.40;1.30;;;15.20;39.70;;;;;;10390481;28;20221;-68
2023/02/18 08:59:00;;;;;;;1.37;1.30;;;15.20;39.70;;;;;;10390868;28;20750;-67
2023/02/18 09:04:03;;;;;;;1.13;1.07;;;15.30;39.70;;;;;;10392653;28;20228;-69
2023/02/18 09:09:07;;;;;;;1.57;1.20;;;15.30;39.60;;;;;;10394735;28;20256;-68
2023/02/18 09:14:12;;;;;;;1.30;1.20;;;15.40;39.60;;;;;;10386651;28;20725;-73
2023/02/18 09:19:15;;;;;;;1.73;1.60;;;15.40;39.40;;;;;;10391108;28;20233;-70
2023/02/18 09:24:18;;;;;;;1.03;1.00;;;15.50;39.40;;;;;;10390846;28;20218;-70
2023/02/18 09:29:23;;;;;;;1.07;0.90;;;15.60;39.50;;;;;;10400538;28;21682;-71
2023/02/18 09:34:26;;;;;;;1.27;1.20;;;15.70;39.40;;;;;;10385367;28;20233;-70
2023/02/18 09:39:29;;;;;;;1.47;1.37;;;15.80;39.20;;;;;;10391349;28;20602;-69
2023/02/18 09:44:38;;;;;;;1.60;1.50;;;16.00;39.10;;;;;;10390685;28;20240;-73
2023/02/18 09:49:45;;;;;;;1.27;1.17;;;16.00;38.70;;;;;;10391617;28;20721;-68
2023/02/18 09:54:49;;;;;;;1.20;1.20;;;16.00;38.90;;;;;;10389319;28;20252;-68
2023/02/18 09:59:59;;;;;;;1.13;1.10;;;16.00;38.60;;;;;;10388206;28;20229;-68
2023/02/18 10:05:03;;;;;;;1.20;1.20;;;16.10;38.50;;;;;;10390772;28;20241;-69
2023/02/18 10:10:16;;;;;;;1.37;1.30;;;16.10;38.80;;;;;;10378686;28;20233;-70
2023/02/18 10:15:23;;;;;;;1.20;1.10;;;16.20;38.30;;;;;;10387048;28;20250;-68
2023/02/18 10:20:29;;;;;;;0.97;0.90;;;16.20;38.20;;;;;;10380925;28;20237;-68
2023/02/18 10:25:38;;;;;;;1.20;1.10;;;16.30;38.00;;;;;;10380746;28;20233;-68
2023/02/18 10:30:47;;;;;;;1.20;1.10;;;16.40;38.00;;;;;;10385326;28;20752;-67
2023/02/18 10:35:54;;;;;;;1.70;0.90;;;16.40;37.60;;;;;;10376798;28;20241;-72
2023/02/18 10:41:04;;;;;;;1.00;1.00;;;16.40;37.70;;;;;;10391430;28;20844;-70
2023/02/18 10:46:19;;;;;;;1.30;1.20;;;16.50;37.40;;;;;;10400164;28;20302;-67
2023/02/18 10:51:26;;;;;;;0.80;0.80;;;16.50;36.90;;;;;;10393710;28;20229;-67
2023/02/18 10:56:37;;;;;;;1.10;1.00;;;16.50;37.10;;;;;;10389644;28;20734;-69
2023/02/18 11:01:44;;;;;;;0.90;0.90;;;16.50;36.00;;;;;;10389404;28;20677;-69
2023/02/18 11:06:49;;;;;;;1.10;1.10;;;16.50;36.40;;;;;;10398390;28;20279;-69
2023/02/18 11:11:58;;;;;;;0.80;0.80;;;16.50;36.60;;;;;;10399113;28;20229;-71
2023/02/18 11:17:18;;;;;;;1.20;1.10;;;16.50;36.30;;;;;;10389196;28;20326;-71
2023/02/18 11:22:23;;;;;;;0.83;0.83;;;16.50;36.10;;;;;;10398562;28;20616;-67
2023/02/18 11:27:34;;;;;;;0.80;0.80;;;16.50;36.00;;;;;;10400634;28;20277;-67
2023/02/18 11:32:40;;;;;;;0.90;0.90;;;16.50;35.70;;;;;;10398615;28;20260;-69
2023/02/18 11:43:11;;;;;;;0.80;0.80;;;16.60;35.60;;;;;;3020327;26;20276;-75
2023/02/18 11:48:23;;;;;;;0.80;0.80;;;16.70;35.70;;;;;;10540351;28;20398;-74
2023/02/18 11:53:30;;;;;;;2.43;0.80;;;16.70;35.90;;;;;;10532933;28;20256;-74
2023/02/18 11:58:39;;;;;;;1.23;0.93;;;16.80;36.20;;;;;;10490404;28;20232;-74
2023/02/18 12:03:48;;;;;;;0.90;0.90;;;16.90;35.30;;;;;;10520646;28;20231;-74
2023/02/18 12:08:55;;;;;;;0.97;0.73;;;16.90;35.50;;;;;;10522605;28;20243;-74
2023/02/18 12:13:59;;;;;;;0.90;0.90;;;17.00;35.50;;;;;;10518172;28;20310;-74
2023/02/18 12:19:23;;;;;;;0.90;0.90;;;17.00;35.50;;;;;;10502460;28;20308;-74
2023/02/18 12:24:39;;;;;;;0.90;0.80;;;17.00;34.90;;;;;;10518533;28;20657;-74
2023/02/18 12:30:05;;;;;;;0.87;0.87;;;17.10;35.80;;;;;;10526782;28;20646;-74
2023/02/18 12:35:33;;;;;;;0.90;0.90;;;17.10;34.70;;;;;;10499634;28;20809;-74
2023/02/18 12:41:08;;;;;;;1.13;1.03;;;17.10;35.20;;;;;;10497194;28;20715;-74
2023/02/18 12:46:24;;;;;;;1.03;1.03;;;17.20;35.40;;;;;;10482355;28;20322;-76
2023/02/18 12:51:39;;;;;;;1.80;1.70;;;17.20;35.00;;;;;;10517291;28;20235;-76
2023/02/18 12:57:05;;;;;;;1.80;1.70;;;17.20;35.00;;;;;;10520310;28;20228;-76
2023/02/18 13:02:22;;;;;;;1.80;1.70;;;17.30;34.80;;;;;;10512031;28;20224;-76
2023/02/18 13:08:02;;;;;;;2.20;2.00;;;17.30;34.10;;;;;;10521544;28;20235;-75
2023/02/18 13:13:12;;;;;;;2.60;1.67;;;17.30;34.50;;;;;;10515711;28;20330;-75
2023/02/18 13:18:21;;;;;;;2.37;1.70;;;17.30;34.90;;;;;;10506372;28;20235;-76
2023/02/18 13:23:30;;;;;;;2.10;1.90;;;17.20;34.80;;;;;;10522239;28;20243;-75
2023/02/18 13:28:43;;;;;;;2.03;1.50;;;17.20;34.70;;;;;;10513736;28;20232;-75
2023/02/18 13:33:53;;;;;;;1.83;1.57;;;17.10;35.10;;;;;;10511405;28;20228;-76
2023/02/18 13:39:06;;;;;;;1.77;1.60;;;17.10;34.80;;;;;;10513452;28;20227;-76
2023/02/18 13:44:33;;;;;;;1.93;1.10;;;17.00;34.50;;;;;;10515835;28;20310;-77
2023/02/18 13:49:39;;;;;;;2.30;2.10;;;16.90;35.20;;;;;;10515001;28;20231;-76
2023/02/18 13:54:46;;;;;;;2.00;1.80;;;16.90;35.40;;;;;;10509963;28;20711;-76
2023/02/18 13:59:56;;;;;;;3.10;2.57;;;16.90;34.50;;;;;;10515112;28;20357;-75
2023/02/18 14:05:19;;;;;;;3.20;2.23;;;16.80;34.30;;;;;;10504869;28;20228;-77
2023/02/18 14:10:34;;;;;;;1.53;1.30;;;16.80;34.00;;;;;;10515645;28;20314;-76
2023/02/18 14:16:00;;;;;;;3.10;1.87;;;16.90;33.10;;;;;;10511886;28;20306;-76
2023/02/18 14:21:34;;;;;;;2.83;1.93;;;16.90;32.90;;;;;;10508759;28;20232;-77
2023/02/18 14:26:45;;;;;;;1.63;1.50;;;16.90;32.00;;;;;;10517235;28;20220;-76
2023/02/18 14:31:54;;;;;;;1.60;1.37;;;16.90;33.00;;;;;;10511354;28;20227;-76
2023/02/18 14:37:15;;;;;;;2.70;1.13;;;16.90;32.00;;;;;;10511361;28;20232;-77
2023/02/18 14:42:29;;;;;;;1.60;1.50;;;16.90;32.40;;;;;;10523852;28;20228;-76
2023/02/18 14:47:45;;;;;;;1.50;1.30;;;17.00;32.10;;;;;;10516636;28;20226;-77
2023/02/18 14:52:51;;;;;;;1.97;1.23;;;17.00;32.40;;;;;;10512553;28;20234;-77
2023/02/18 14:58:01;;;;;;;3.47;1.50;;;17.10;32.90;;;;;;10511369;28;20226;-76
2023/02/18 15:03:08;;;;;;;1.70;1.60;;;17.10;31.90;;;;;;10505591;28;20278;-76
2023/02/18 15:08:16;;;;;;;1.70;1.60;;;17.10;33.00;;;;;;10511388;28;20228;-76
2023/02/18 15:13:25;;;;;;;5.33;1.30;;;17.10;31.90;;;;;;10513276;28;20236;-76
2023/02/18 15:18:33;;;;;;;1.93;1.50;;;17.10;31.90;;;;;;10514162;28;20228;-76
2023/02/18 15:23:39;;;;;;;1.60;1.30;;;17.10;32.30;;;;;;10511421;28;20232;-73
2023/02/18 15:28:56;;;;;;;1.43;1.20;;;17.00;32.60;;;;;;10518567;28;20252;-74
2023/02/18 15:33:59;;;;;;;2.40;1.40;;;17.10;31.90;;;;;;10524951;28;20239;-73
2023/02/18 15:39:03;;;;;;;3.17;1.90;;;17.10;32.50;;;;;;10523846;28;20227;-74
2023/02/18 15:44:08;;;;;;;2.33;1.80;;;17.00;32.80;;;;;;10513211;28;20707;-73
2023/02/18 15:49:15;;;;;;;2.57;1.97;;;17.00;32.20;;;;;;10520332;28;20239;-74
2023/02/18 15:54:20;;;;;;;4.57;1.70;;;16.90;31.80;;;;;;10526511;28;20240;-74
2023/02/18 15:59:29;;;;;;;5.30;1.60;;;16.80;32.50;;;;;;10514960;28;20862;-74
2023/02/18 16:04:34;;;;;;;1.20;1.10;;;16.80;32.20;;;;;;10510115;28;20661;-74
2023/02/18 16:09:40;;;;;;;1.67;1.20;;;16.70;32.30;;;;;;10504628;28;20235;-74
2023/02/18 16:14:48;;;;;;;1.40;1.30;;;16.70;32.50;;;;;;10523014;28;20232;-75
2023/02/18 16:19:53;;;;;;;3.23;1.40;;;16.60;32.50;;;;;;10524676;28;20220;-74
2023/02/18 16:25:16;;;;;;;1.33;1.23;;;16.60;32.80;;;;;;10504382;28;20227;-74
2023/02/18 16:30:22;;;;;;;1.33;1.23;;;16.50;32.40;;;;;;10508147;28;20239;-74
2023/02/18 16:35:29;;;;;;;1.30;1.20;;;16.50;32.80;;;;;;10504482;28;20231;-75
2023/02/18 16:40:51;;;;;;;0.93;0.93;;;16.50;32.80;;;;;;10508417;28;20232;-74
2023/02/18 16:45:58;;;;;;;1.27;1.17;;;16.50;33.30;;;;;;10517882;28;20242;-73
2023/02/18 16:51:04;;;;;;;1.33;1.23;;;16.40;32.60;;;;;;10515942;28;20231;-76
2023/02/18 16:56:14;;;;;;;2.10;2.00;;;16.40;32.70;;;;;;10513257;28;20212;-76
2023/02/18 17:01:28;;;;;;;2.63;2.30;;;16.30;32.50;;;;;;10521045;28;20232;-76
2023/02/18 17:06:32;;;;;;;2.80;2.50;;;16.30;32.70;;;;;;10519102;28;20240;-76
2023/02/18 17:11:36;;;;;;;3.07;2.40;;;16.20;33.20;;;;;;10512884;28;20592;-75
2023/02/18 17:16:41;;;;;;;3.37;3.07;;;16.30;33.30;;;;;;10517995;28;20235;-76
2023/02/18 17:21:45;;;;;;;2.07;1.93;;;16.20;33.20;;;;;;10503218;28;20231;-76
2023/02/18 17:26:50;;;;;;;1.77;1.67;;;16.20;33.20;;;;;;10508775;28;20287;-75
2023/02/18 17:31:56;;;;;;;1.60;1.50;;;16.20;33.20;;;;;;10519998;28;20887;-75
2023/02/18 17:36:59;;;;;;;2.03;1.70;;;16.20;33.20;;;;;;10515742;28;20245;-75
2023/02/18 17:42:03;;;;;;;1.57;1.47;;;16.30;33.30;;;;;;10524422;28;20690;-76
2023/02/18 17:47:07;;;;;;;1.70;1.50;;;16.30;33.30;;;;;;10514237;28;20231;-76
2023/02/18 17:52:28;;;;;;;1.63;1.40;;;16.30;33.30;;;;;;10506888;28;20234;-75
2023/02/18 17:57:31;;;;;;;1.50;1.40;;;16.30;32.20;;;;;;10511683;28;20224;-76
2023/02/18 18:02:35;;;;;;;1.20;1.20;;;16.40;33.30;;;;;;10519091;28;20227;-76
2023/02/18 18:07:38;;;;;;;1.40;1.30;;;16.30;33.00;;;;;;10521748;28;20341;-76
2023/02/18 18:12:42;;;;;;;2.37;1.20;;;16.30;33.30;;;;;;10510275;28;20227;-77
2023/02/18 18:17:47;;;;;;;1.60;1.50;;;16.30;33.30;;;;;;10510124;28;20276;-76
2023/02/18 18:22:50;;;;;;;1.80;1.70;;;16.30;33.30;;;;;;10499255;28;20243;-76
2023/02/18 18:27:54;;;;;;;2.70;1.50;;;16.20;33.20;;;;;;10496713;28;20654;-76
2023/02/18 18:32:59;;;;;;;1.33;1.30;;;16.20;33.20;;;;;;10508453;28;20243;-77
2023/02/18 18:38:02;;;;;;;1.30;1.20;;;16.20;33.20;;;;;;10513826;28;20228;-78
2023/02/18 18:43:05;;;;;;;1.40;1.30;;;16.20;33.20;;;;;;10512954;28;20224;-76
2023/02/18 18:48:10;;;;;;;1.40;1.30;;;16.20;33.20;;;;;;10510760;28;20251;-78
2023/02/18 18:53:18;;;;;;;1.40;1.30;;;16.20;33.20;;;;;;10519599;28;20231;-76
2023/02/18 18:58:23;;;;;;;1.50;1.40;;;16.20;33.20;;;;;;10511628;28;20293;-77
2023/02/18 19:03:29;;;;;;;1.80;1.50;;;16.20;33.20;;;;;;10524899;28;20311;-77
2023/02/18 19:08:33;;;;;;;1.20;1.20;;;16.20;33.20;;;;;;10529449;28;20228;-77
2023/02/18 19:13:36;;;;;;;1.63;1.43;;;16.20;33.20;;;;;;10531230;28;20227;-77
2023/02/18 19:18:40;;;;;;;1.10;1.10;;;16.20;33.20;;;;;;10534433;28;20241;-77
2023/02/18 19:23:43;;;;;;;1.63;1.53;;;16.20;33.20;;;;;;10528938;28;20230;-78
2023/02/18 19:28:47;;;;;;;1.67;1.57;;;16.10;33.10;;;;;;10526159;28;20233;-77
2023/02/18 19:33:54;;;;;;;1.60;1.50;;;16.10;33.10;;;;;;10525747;22;20228;-77
2023/02/18 19:38:57;;;;;;;1.50;1.40;;;16.10;33.10;;;;;;10486614;28;20227;-77
2023/02/18 19:44:01;;;;;;;2.50;2.00;;;16.10;33.10;;;;;;10488717;28;20247;-79
2023/02/18 19:49:06;;;;;;;1.57;1.47;;;16.00;33.00;;;;;;10492307;28;20671;-79
2023/02/18 19:54:11;;;;;;;1.67;1.57;;;16.00;33.00;;;;;;10483786;28;20237;-79
2023/02/18 19:59:14;;;;;;;1.63;1.53;;;16.00;33.00;;;;;;10480398;28;20228;-79
2023/02/18 20:04:18;;;;;;;1.67;1.57;;;16.00;33.00;;;;;;10478756;28;20244;-79
2023/02/18 20:09:22;;;;;;;1.57;1.47;;;15.90;32.90;;;;;;10506192;28;20232;-79
2023/02/18 20:14:26;;;;;;;1.60;1.50;;;15.90;32.90;;;;;;10503625;28;20235;-79
2023/02/18 20:19:32;;;;;;;1.40;1.30;;;15.90;32.90;;;;;;10490362;28;20236;-78
2023/02/18 20:24:36;;;;;;;2.17;1.50;;;15.90;32.90;;;;;;10493678;28;20231;-78
2023/02/18 20:29:39;;;;;;;1.83;1.73;;;15.90;33.00;;;;;;10479188;28;20224;-79
2023/02/18 20:34:44;;;;;;;1.70;1.60;;;15.80;33.30;;;;;;10481700;28;20220;-79
2023/02/18 20:39:47;;;;;;;3.80;1.80;;;15.70;33.60;;;;;;10498615;28;20225;-80
2023/02/18 20:44:50;;;;;;;1.87;1.70;;;15.70;33.70;;;;;;10490731;28;20247;-79
2023/02/18 20:49:55;;;;;;;2.60;2.00;;;15.60;33.90;;;;;;10500987;28;20220;-79
2023/02/18 20:55:01;;;;;;;2.13;2.03;;;15.60;34.50;;;;;;10484239;28;20232;-79
2023/02/18 21:00:05;;;;;;;2.20;2.00;;;15.50;34.80;;;;;;10493259;28;20248;-80
2023/02/18 21:05:10;;;;;;;2.10;1.90;;;15.50;34.70;;;;;;10492556;28;20247;-79
2023/02/18 21:10:13;;;;;;;2.07;1.93;;;15.40;35.30;;;;;;10496980;28;20238;-79
2023/02/18 21:15:16;;;;;;;2.13;1.97;;;15.30;35.30;;;;;;10493297;28;20292;-79
2023/02/18 21:20:21;;;;;;;2.20;2.10;;;15.20;35.60;;;;;;10496659;28;20232;-79
2023/02/18 21:25:24;;;;;;;2.30;2.20;;;15.10;36.10;;;;;;10489515;28;20235;-79
2023/02/18 21:30:28;;;;;;;2.23;2.13;;;14.90;36.20;;;;;;10497627;28;20233;-79
2023/02/18 21:35:35;;;;;;;1.90;1.80;;;14.80;36.20;;;;;;10491586;28;20228;-80
2023/02/18 21:40:46;;;;;;;2.10;2.00;;;14.70;37.30;;;;;;10495465;28;20240;-80
2023/02/18 21:45:49;;;;;;;2.10;2.00;;;14.70;37.60;;;;;;10497555;28;20229;-80
2023/02/18 21:51:00;;;;;;;2.10;1.80;;;14.70;36.60;;;;;;10491215;28;20683;-79
2023/02/18 21:56:10;;;;;;;1.83;1.73;;;14.60;37.50;;;;;;10496667;28;20228;-79
2023/02/18 22:01:15;;;;;;;1.70;1.60;;;14.70;37.50;;;;;;10489931;28;20232;-80
2023/02/18 22:06:20;;;;;;;1.90;1.80;;;14.60;37.10;;;;;;10494821;28;20771;-79
2023/02/18 22:11:23;;;;;;;1.70;1.60;;;14.60;36.90;;;;;;10493949;28;20240;-80
2023/02/18 22:16:27;;;;;;;1.80;1.70;;;14.60;36.70;;;;;;10489912;28;20225;-80
2023/02/18 22:21:34;;;;;;;1.60;1.50;;;14.60;37.10;;;;;;10490585;28;20233;-79
2023/02/18 22:26:37;;;;;;;1.87;1.77;;;14.60;37.40;;;;;;10486113;28;20662;-80
2023/02/18 22:31:42;;;;;;;1.47;1.40;;;14.60;36.90;;;;;;10487217;28;20851;-80
2023/02/18 22:36:47;;;;;;;1.57;1.47;;;14.60;37.40;;;;;;10488157;28;20232;-79
2023/02/18 22:41:50;;;;;;;2.33;1.70;;;14.60;37.40;;;;;;10490731;28;20233;-79
2023/02/18 22:46:55;;;;;;;1.80;1.70;;;14.60;37.10;;;;;;10498345;28;20226;-79
2023/02/18 22:51:59;;;;;;;1.70;1.60;;;14.50;37.50;;;;;;10494410;28;20228;-79
2023/02/18 22:57:03;;;;;;;1.90;1.80;;;14.50;37.60;;;;;;10495021;28;20220;-79
2023/02/18 23:02:06;;;;;;;1.60;1.50;;;14.50;37.30;;;;;;10490618;28;20232;-79
2023/02/18 23:07:10;;;;;;;1.60;1.50;;;14.50;37.40;;;;;;10495325;28;20236;-79
2023/02/18 23:12:14;;;;;;;1.80;1.70;;;14.40;37.70;;;;;;10491499;28;20240;-79
2023/02/18 23:17:17;;;;;;;1.83;1.73;;;14.40;37.50;;;;;;10493418;28;20236;-79
2023/02/18 23:22:31;;;;;;;2.13;1.67;;;14.40;37.60;;;;;;10490616;28;20262;-79
2023/02/18 23:27:34;;;;;;;1.90;1.80;;;14.40;38.20;;;;;;10491921;28;20224;-79
2023/02/18 23:32:37;;;;;;;1.80;1.70;;;14.40;37.70;;;;;;10490592;28;20300;-79
2023/02/18 23:43:03;;;;;;;1.97;1.87;;;14.30;38.10;;;;;;10493455;28;20235;-79
2023/02/18 23:48:06;;;;;;;1.90;1.80;;;14.30;37.70;;;;;;10497426;28;20711;-79
2023/02/18 23:53:10;;;;;;;2.00;1.90;;;14.30;37.70;;;;;;10504739;28;20236;-79
2023/02/18 23:58:14;;;;;;;2.03;1.93;;;14.30;38.20;;;;;;10502171;28;20632;-79
